createdAt,value
2023-05-05T00:01:03.153Z,15.78
2023-05-05T00:03:30.018Z,15.59
2023-05-05T00:05:57.468Z,15.40
2023-05-05T00:08:26.733Z,15.33
2023-05-05T00:10:53.681Z,15.30
2023-05-05T00:13:21.690Z,15.24
2023-05-05T00:15:50.370Z,15.19
2023-05-05T00:18:18.060Z,15.38
2023-05-05T00:20:46.872Z,15.43
2023-05-05T00:23:14.410Z,15.39
2023-05-05T00:25:41.153Z,15.23
2023-05-05T00:28:07.950Z,15.41
2023-05-05T00:30:34.771Z,15.27
2023-05-05T00:33:01.937Z,15.23
2023-05-05T00:35:28.677Z,14.95
2023-05-05T00:37:57.641Z,15.18
2023-05-05T00:40:25.247Z,15.02
2023-05-05T00:42:52.731Z,14.67
2023-05-05T00:45:20.259Z,14.67
2023-05-05T00:47:52.766Z,14.70
2023-05-05T00:50:22.717Z,14.53
2023-05-05T00:52:49.852Z,14.62
2023-05-05T00:55:16.720Z,14.33
2023-05-05T00:57:44.468Z,14.40
2023-05-05T01:00:12.012Z,14.32
2023-05-05T01:02:40.201Z,14.05
2023-05-05T01:05:09.035Z,14.09
2023-05-05T01:07:53.970Z,14.03
2023-05-05T01:10:50.491Z,13.89
2023-05-05T01:13:37.420Z,13.92
2023-05-05T01:16:16.973Z,13.96
2023-05-05T01:19:05.392Z,14.13
2023-05-05T01:21:49.853Z,14.03
2023-05-05T01:24:39.312Z,13.92
2023-05-05T01:27:27.771Z,13.96
2023-05-05T01:30:08.907Z,14.05
2023-05-05T01:32:43.813Z,13.94
2023-05-05T01:35:18.502Z,13.92
2023-05-05T01:38:03.423Z,13.90
2023-05-05T01:40:39.069Z,13.76
2023-05-05T01:43:08.682Z,13.80
2023-05-05T01:45:40.005Z,13.79
2023-05-05T01:48:08.241Z,13.78
2023-05-05T01:50:37.039Z,13.71
2023-05-05T01:53:04.978Z,13.74
2023-05-05T01:55:36.693Z,13.66
2023-05-05T01:58:05.817Z,13.33
2023-05-05T02:00:35.854Z,13.52
2023-05-05T02:03:05.476Z,13.52
2023-05-05T02:05:38.813Z,13.44
2023-05-05T02:08:06.612Z,13.55
2023-05-05T02:10:34.546Z,13.61
2023-05-05T02:13:04.954Z,13.50
2023-05-05T02:15:33.742Z,13.51
2023-05-05T02:18:04.684Z,13.62
2023-05-05T02:20:35.239Z,13.48
2023-05-05T02:23:05.554Z,13.45
2023-05-05T02:25:53.184Z,13.49
2023-05-05T02:28:36.438Z,13.42
2023-05-05T02:31:08.628Z,13.43
2023-05-05T02:33:36.716Z,13.66
2023-05-05T02:36:19.209Z,13.34
2023-05-05T02:38:48.554Z,13.54
2023-05-05T02:41:18.774Z,13.27
2023-05-05T02:43:48.592Z,13.51
2023-05-05T02:46:15.812Z,13.46
2023-05-05T02:48:42.458Z,13.13
2023-05-05T02:51:09.045Z,13.24
2023-05-05T02:53:39.101Z,13.30
2023-05-05T02:56:14.861Z,13.03
2023-05-05T02:59:19.529Z,12.98
2023-05-05T03:02:06.581Z,13.02
2023-05-05T03:04:41.871Z,12.88
2023-05-05T03:07:37.966Z,13.13
2023-05-05T03:10:13.947Z,13.22
2023-05-05T03:12:54.643Z,13.03
2023-05-05T03:15:30.641Z,13.35
2023-05-05T03:17:59.100Z,13.26
2023-05-05T03:20:26.363Z,13.34
2023-05-05T03:22:53.223Z,13.42
2023-05-05T03:25:19.866Z,13.25
2023-05-05T03:27:46.512Z,13.32
2023-05-05T03:30:13.311Z,13.34
2023-05-05T03:32:39.850Z,13.37
2023-05-05T03:35:09.484Z,13.49
2023-05-05T03:37:39.661Z,13.27
2023-05-05T03:40:09.904Z,13.27
2023-05-05T03:42:37.896Z,12.97
2023-05-05T03:45:04.822Z,13.13
2023-05-05T03:47:31.546Z,13.32
2023-05-05T03:50:01.111Z,13.24
2023-05-05T03:52:27.673Z,13.12
2023-05-05T03:54:54.292Z,13.22
2023-05-05T03:57:20.923Z,13.09
2023-05-05T03:59:47.427Z,13.13
2023-05-05T04:02:13.967Z,13.01
2023-05-05T04:04:40.598Z,13.00
2023-05-05T04:07:09.381Z,12.83
2023-05-05T04:09:36.023Z,12.82
2023-05-05T04:12:03.136Z,12.91
2023-05-05T04:14:29.726Z,13.00
2023-05-05T04:16:56.234Z,13.04
2023-05-05T04:19:22.723Z,13.12
2023-05-05T04:21:50.407Z,12.94
2023-05-05T04:24:16.991Z,12.93
2023-05-05T04:26:43.552Z,12.96
2023-05-05T04:29:13.280Z,12.92
2023-05-05T04:31:43.204Z,13.09
2023-05-05T04:34:12.931Z,12.94
2023-05-05T04:36:42.806Z,13.10
2023-05-05T04:39:12.186Z,12.93
2023-05-05T04:41:40.973Z,12.89
2023-05-05T04:44:07.472Z,12.89
2023-05-05T04:46:34.973Z,12.84
2023-05-05T04:49:03.378Z,12.92
2023-05-05T04:51:29.935Z,13.14
2023-05-05T04:53:56.478Z,12.84
2023-05-05T04:56:23.071Z,12.89
2023-05-05T04:58:50.266Z,12.82
2023-05-05T05:01:16.868Z,12.89
2023-05-05T05:03:43.569Z,12.92
2023-05-05T05:06:12.389Z,13.02
2023-05-05T05:08:38.949Z,12.99
2023-05-05T05:11:05.503Z,13.21
2023-05-05T05:13:32.452Z,13.35
2023-05-05T05:15:59.043Z,13.34
2023-05-05T05:18:25.648Z,13.73
2023-05-05T05:20:52.260Z,13.76
2023-05-05T05:23:18.755Z,13.63
2023-05-05T05:25:46.002Z,13.79
2023-05-05T05:28:15.902Z,13.95
2023-05-05T05:30:46.207Z,14.00
2023-05-05T05:33:15.655Z,14.05
2023-05-05T05:35:46.055Z,14.07
2023-05-05T05:38:17.604Z,14.15
2023-05-05T05:40:49.172Z,13.96
2023-05-05T05:43:15.799Z,14.07
2023-05-05T05:45:45.713Z,14.14
2023-05-05T05:48:13.460Z,14.27
2023-05-05T05:50:40.023Z,14.17
2023-05-05T05:53:06.800Z,14.15
2023-05-05T05:55:33.363Z,14.06
2023-05-05T05:58:00.220Z,14.24
2023-05-05T06:00:27.144Z,14.37
2023-05-05T06:02:53.701Z,14.44
2023-05-05T06:05:20.281Z,14.61
2023-05-05T06:07:46.772Z,14.73
2023-05-05T06:10:27.485Z,14.87
2023-05-05T06:12:55.322Z,15.01
2023-05-05T06:15:21.940Z,15.02
2023-05-05T06:17:48.618Z,14.93
2023-05-05T06:20:15.340Z,15.03
2023-05-05T06:22:44.970Z,15.06
2023-05-05T06:25:14.471Z,15.09
2023-05-05T06:27:43.235Z,14.93
2023-05-05T06:30:12.416Z,14.82
2023-05-05T06:32:39.318Z,14.58
2023-05-05T06:35:07.239Z,14.64
2023-05-05T06:37:34.021Z,14.37
2023-05-05T06:40:00.971Z,14.29
2023-05-05T06:42:27.502Z,14.34
2023-05-05T06:44:54.006Z,14.26
2023-05-05T06:47:20.728Z,14.31
2023-05-05T06:49:47.247Z,14.52
2023-05-05T06:52:13.852Z,14.61
2023-05-05T06:54:41.625Z,14.77
2023-05-05T06:57:08.061Z,14.57
2023-05-05T06:59:34.541Z,14.72
2023-05-05T07:02:01.053Z,14.71
2023-05-05T07:04:27.590Z,14.70
2023-05-05T07:06:55.440Z,14.84
2023-05-05T07:09:22.308Z,14.93
2023-05-05T07:11:49.209Z,15.10
2023-05-05T07:14:16.090Z,15.15
2023-05-05T07:16:46.636Z,15.25
2023-05-05T07:19:17.716Z,15.21
2023-05-05T07:24:15.272Z,15.38
2023-05-05T07:26:44.651Z,15.53
2023-05-05T07:29:11.692Z,16.08
2023-05-05T07:31:38.750Z,16.31
2023-05-05T07:34:05.622Z,16.57
2023-05-05T07:36:32.946Z,16.80
2023-05-05T07:39:00.620Z,16.90
2023-05-05T07:41:27.609Z,16.96
2023-05-05T07:43:54.415Z,16.95
2023-05-05T07:46:21.247Z,16.80
2023-05-05T07:48:48.185Z,16.61
2023-05-05T07:51:18.678Z,16.64
2023-05-05T07:53:48.120Z,16.47
2023-05-05T07:56:18.148Z,16.30
2023-05-05T07:58:48.519Z,16.44
2023-05-05T08:01:18.366Z,16.43
2023-05-05T08:03:47.534Z,16.22
2023-05-05T08:06:22.159Z,16.37
2023-05-05T08:08:50.417Z,16.26
2023-05-05T08:11:20.557Z,16.35
2023-05-05T08:13:48.624Z,16.44
2023-05-05T08:16:17.215Z,16.44
2023-05-05T08:18:43.943Z,16.39
2023-05-05T08:21:11.236Z,16.36
2023-05-05T08:23:39.053Z,16.20
2023-05-05T08:26:09.014Z,15.89
2023-05-05T08:28:39.497Z,15.49
2023-05-05T08:31:06.959Z,15.15
2023-05-05T08:33:33.639Z,14.65
2023-05-05T08:36:00.493Z,14.55
2023-05-05T08:38:27.274Z,14.52
2023-05-05T08:40:53.792Z,14.54
2023-05-05T08:43:22.976Z,14.44
2023-05-05T08:45:51.821Z,14.41
2023-05-05T08:48:22.819Z,14.08
2023-05-05T08:51:00.820Z,14.08
2023-05-05T08:53:34.940Z,14.24
2023-05-05T08:56:04.477Z,14.47
2023-05-05T08:58:31.634Z,14.89
2023-05-05T09:00:58.724Z,15.10
2023-05-05T09:03:27.307Z,15.27
2023-05-05T09:05:54.488Z,15.76
2023-05-05T09:08:21.576Z,16.14
2023-05-05T09:10:51.687Z,16.77
2023-05-05T09:13:19.299Z,17.05
2023-05-05T09:15:50.601Z,17.28
2023-05-05T09:18:20.207Z,17.25
2023-05-05T09:20:50.185Z,17.32
2023-05-05T09:23:21.462Z,17.28
2023-05-05T09:26:03.763Z,17.03
2023-05-05T09:28:30.516Z,16.76
2023-05-05T09:31:19.481Z,16.80
2023-05-05T09:33:48.593Z,16.32
2023-05-05T09:36:15.132Z,16.08
2023-05-05T09:38:41.615Z,15.93
2023-05-05T09:41:08.077Z,15.76
2023-05-05T09:43:54.795Z,15.46
2023-05-05T09:46:24.180Z,15.05
2023-05-05T09:48:50.822Z,14.85
2023-05-05T09:51:29.355Z,14.60
2023-05-05T09:53:55.934Z,14.34
2023-05-05T09:56:37.764Z,14.17
2023-05-05T09:59:11.918Z,14.08
2023-05-05T10:01:43.682Z,13.81
2023-05-05T10:04:26.828Z,13.85
2023-05-05T10:06:55.872Z,13.99
2023-05-05T10:09:26.244Z,14.25
2023-05-05T10:11:56.233Z,14.64
2023-05-05T10:14:24.197Z,15.36
2023-05-05T10:16:53.142Z,15.98
2023-05-05T10:19:21.734Z,16.91
2023-05-05T10:21:53.447Z,18.24
2023-05-05T10:24:39.314Z,19.56
2023-05-05T10:27:26.082Z,20.25
2023-05-05T10:30:02.189Z,19.90
2023-05-05T10:35:26.393Z,18.39
2023-05-05T10:37:54.505Z,17.61
2023-05-05T10:40:22.791Z,17.40
2023-05-05T10:42:54.522Z,17.28
2023-05-05T10:45:21.368Z,17.29
2023-05-05T10:47:54.041Z,16.96
2023-05-05T10:50:50.083Z,17.39
2023-05-05T10:53:28.957Z,17.87
2023-05-05T10:56:16.037Z,17.98
2023-05-05T10:58:58.319Z,17.48
2023-05-05T11:01:33.626Z,17.16
2023-05-05T11:04:36.106Z,16.86
2023-05-05T11:07:09.805Z,16.37
2023-05-05T11:09:58.535Z,15.58
2023-05-05T11:12:25.502Z,15.15
2023-05-05T11:15:26.438Z,15.13
2023-05-05T11:18:05.795Z,14.91
2023-05-05T11:20:37.193Z,15.02
2023-05-05T11:23:03.722Z,15.26
2023-05-05T11:25:36.955Z,15.20
2023-05-05T11:28:11.762Z,15.22
2023-05-05T11:30:57.571Z,15.48
2023-05-05T11:33:25.727Z,15.74
2023-05-05T11:36:06.059Z,16.07
2023-05-05T11:38:39.391Z,17.17
2023-05-05T11:41:25.812Z,18.60
2023-05-05T11:44:29.437Z,19.51
2023-05-05T11:47:01.994Z,19.90
2023-05-05T11:49:30.529Z,19.63
2023-05-05T11:52:07.156Z,19.25
2023-05-05T11:54:42.090Z,18.83
2023-05-05T11:57:09.190Z,18.67
2023-05-05T11:59:37.468Z,18.39
2023-05-05T12:02:04.732Z,18.25
2023-05-05T12:04:32.391Z,18.18
2023-05-05T12:07:00.047Z,18.46
2023-05-05T12:09:27.423Z,18.36
2023-05-05T12:11:56.642Z,18.59
2023-05-05T12:14:26.344Z,18.81
2023-05-05T12:16:57.104Z,19.30
2023-05-05T12:19:30.366Z,19.32
2023-05-05T12:21:57.690Z,19.35
2023-05-05T12:24:25.821Z,19.49
2023-05-05T12:26:55.006Z,19.44
2023-05-05T12:29:29.438Z,19.29
2023-05-05T12:31:57.944Z,19.21
2023-05-05T12:34:27.400Z,19.04
2023-05-05T12:36:57.335Z,18.62
2023-05-05T12:39:34.019Z,18.88
2023-05-05T12:42:07.109Z,19.52
2023-05-05T12:44:40.785Z,20.79
2023-05-05T12:47:07.484Z,21.96
2023-05-05T12:49:51.347Z,23.38
2023-05-05T12:52:18.531Z,24.01
2023-05-05T12:54:55.995Z,24.44
2023-05-05T12:57:23.316Z,24.57
2023-05-05T12:59:51.052Z,24.30
2023-05-05T13:02:17.710Z,23.79
2023-05-05T13:04:56.984Z,23.14
2023-05-05T13:07:24.074Z,22.83
2023-05-05T13:09:51.018Z,22.72
2023-05-05T13:12:18.428Z,23.06
2023-05-05T13:14:45.517Z,23.98
2023-05-05T13:17:13.044Z,24.71
2023-05-05T13:19:46.114Z,25.05
2023-05-05T13:22:13.604Z,25.66
2023-05-05T13:24:50.850Z,25.95
2023-05-05T13:27:19.963Z,26.01
2023-05-05T13:29:46.758Z,25.34
2023-05-05T13:32:13.362Z,25.11
2023-05-05T13:34:39.999Z,24.99
2023-05-05T13:37:06.724Z,24.45
2023-05-05T13:39:33.401Z,23.48
2023-05-05T13:41:59.915Z,22.69
2023-05-05T13:44:28.910Z,22.22
2023-05-05T13:46:55.501Z,21.90
2023-05-05T13:49:22.114Z,21.58
2023-05-05T13:51:48.746Z,20.68
2023-05-05T13:54:15.339Z,20.91
2023-05-05T13:56:41.940Z,20.79
2023-05-05T13:59:09.288Z,20.65
2023-05-05T14:01:36.009Z,20.47
2023-05-05T14:04:05.129Z,20.53
2023-05-05T14:06:32.714Z,20.52
2023-05-05T14:09:05.879Z,20.83
2023-05-05T14:11:32.907Z,22.16
2023-05-05T14:14:03.155Z,23.40
2023-05-05T14:16:30.707Z,24.71
2023-05-05T14:18:57.326Z,25.65
2023-05-05T14:21:23.940Z,26.46
2023-05-05T14:23:50.719Z,26.95
2023-05-05T14:26:17.752Z,27.10
2023-05-05T14:28:44.648Z,27.16
2023-05-05T14:31:11.351Z,27.22
2023-05-05T14:33:38.029Z,26.90
2023-05-05T14:36:04.843Z,26.32
2023-05-05T14:38:31.382Z,25.83
2023-05-05T14:41:03.913Z,25.15
2023-05-05T14:43:32.392Z,24.49
2023-05-05T14:46:06.956Z,24.69
2023-05-05T14:48:34.704Z,24.82
2023-05-05T14:51:01.360Z,24.64
2023-05-05T14:53:29.949Z,24.88
2023-05-05T14:55:56.769Z,25.60
2023-05-05T14:58:24.752Z,26.26
2023-05-05T15:00:52.989Z,26.74
2023-05-05T15:03:19.617Z,26.85
2023-05-05T15:05:46.103Z,26.90
2023-05-05T15:08:14.449Z,26.67
2023-05-05T15:10:41.418Z,26.32
2023-05-05T15:13:08.027Z,26.17
2023-05-05T15:15:34.505Z,26.11
2023-05-05T15:18:04.378Z,26.19
2023-05-05T15:20:34.371Z,26.27
2023-05-05T15:23:04.467Z,26.14
2023-05-05T15:25:31.912Z,26.12
2023-05-05T15:28:04.131Z,26.42
2023-05-05T15:30:35.491Z,26.73
2023-05-05T15:33:02.325Z,26.75
2023-05-05T15:35:33.849Z,26.44
2023-05-05T15:38:03.409Z,26.54
2023-05-05T15:40:32.308Z,26.53
2023-05-05T15:42:58.832Z,26.46
2023-05-05T15:45:25.502Z,26.19
2023-05-05T15:47:53.869Z,25.94
2023-05-05T15:50:21.130Z,25.57
2023-05-05T15:52:49.913Z,25.26
2023-05-05T15:55:17.432Z,25.36
2023-05-05T15:57:44.216Z,24.93
2023-05-05T16:00:11.151Z,24.92
2023-05-05T16:02:37.739Z,24.79
2023-05-05T16:05:04.881Z,24.34
2023-05-05T16:07:34.032Z,24.20
2023-05-05T16:10:02.135Z,24.01
2023-05-05T16:12:28.759Z,23.88
2023-05-05T16:14:55.763Z,23.79
2023-05-05T16:17:22.814Z,23.48
2023-05-05T16:19:49.397Z,23.40
2023-05-05T16:22:15.989Z,23.18
2023-05-05T16:24:44.365Z,23.30
2023-05-05T16:27:11.204Z,23.26
2023-05-05T16:29:37.711Z,23.21
2023-05-05T16:32:06.629Z,23.06
2023-05-05T16:34:33.187Z,23.06
2023-05-05T16:37:01.985Z,23.24
2023-05-05T16:39:28.510Z,23.35
2023-05-05T16:41:55.066Z,23.43
2023-05-05T16:44:21.714Z,23.33
2023-05-05T16:46:48.245Z,23.55
2023-05-05T16:49:14.813Z,23.37
2023-05-05T16:51:41.396Z,23.36
2023-05-05T16:54:07.903Z,23.19
2023-05-05T16:56:35.127Z,23.09
2023-05-05T16:59:04.384Z,22.65
2023-05-05T17:01:34.978Z,22.73
2023-05-05T17:04:08.008Z,22.49
2023-05-05T17:06:34.602Z,22.48
2023-05-05T17:09:06.242Z,22.34
2023-05-05T17:11:32.918Z,22.13
2023-05-05T17:14:03.475Z,22.04
2023-05-05T17:16:32.359Z,21.89
2023-05-05T17:18:58.911Z,21.79
2023-05-05T17:21:25.752Z,21.41
2023-05-05T17:23:52.323Z,21.50
2023-05-05T17:26:18.844Z,21.40
2023-05-05T17:28:45.439Z,21.33
2023-05-05T17:31:12.655Z,21.15
2023-05-05T17:33:39.329Z,20.97
2023-05-05T17:36:06.973Z,20.75
2023-05-05T17:38:33.858Z,20.74
2023-05-05T17:41:03.714Z,20.66
2023-05-05T17:43:32.981Z,20.63
2023-05-05T17:46:03.391Z,20.41
2023-05-05T17:48:35.793Z,20.47
2023-05-05T17:51:05.584Z,20.29
2023-05-05T17:53:33.766Z,20.30
2023-05-05T17:56:02.785Z,20.49
2023-05-05T17:58:36.633Z,20.34
2023-05-05T18:01:06.657Z,20.07
2023-05-05T18:03:37.279Z,20.05
2023-05-05T18:06:05.917Z,19.80
2023-05-05T18:08:36.034Z,19.74
2023-05-05T18:11:08.537Z,19.80
2023-05-05T18:13:35.669Z,19.66
2023-05-05T18:16:05.600Z,19.68
2023-05-05T18:18:35.505Z,19.39
2023-05-05T18:21:05.261Z,19.53
2023-05-05T18:23:36.235Z,19.24
2023-05-05T18:26:05.737Z,19.38
2023-05-05T18:28:37.769Z,19.16
2023-05-05T20:11:48.963Z,16.72
2023-05-05T20:14:41.226Z,16.73
2023-05-05T20:17:19.901Z,16.68
2023-05-05T20:19:49.575Z,16.48
2023-05-05T20:22:21.006Z,16.42
2023-05-05T20:27:22.975Z,16.27
2023-05-05T20:29:49.801Z,15.99
2023-05-05T20:41:09.237Z,15.74
2023-05-05T20:44:09.410Z,15.94
2023-05-05T20:47:37.734Z,15.96
2023-05-05T21:14:45.797Z,15.14
2023-05-05T21:17:16.604Z,15.23
2023-05-05T21:19:43.478Z,15.10
2023-05-05T21:22:23.229Z,15.09
2023-05-05T21:24:50.086Z,15.09
2023-05-05T21:27:19.971Z,14.99
2023-05-05T21:29:51.086Z,14.95
2023-05-05T21:32:17.973Z,14.81
2023-05-05T21:34:51.248Z,15.07
2023-05-05T21:37:20.185Z,14.69
2023-05-05T21:39:46.872Z,14.71
2023-05-05T21:42:13.562Z,14.66
2023-05-05T22:18:55.792Z,14.38
2023-05-05T22:41:26.207Z,13.79
2023-05-05T22:43:54.026Z,13.97
2023-05-05T22:46:21.038Z,13.57
2023-05-05T22:48:48.129Z,13.60
2023-05-05T22:51:14.933Z,13.78
2023-05-05T22:53:41.966Z,13.59
2023-05-05T22:56:08.665Z,13.83
2023-05-05T22:58:38.402Z,13.77
2023-05-05T23:01:07.357Z,13.59
2023-05-05T23:03:34.188Z,13.56
2023-05-05T23:06:01.039Z,13.50
2023-05-05T23:08:27.686Z,13.37
2023-05-05T23:10:54.423Z,13.49
2023-05-05T23:13:21.161Z,13.41
2023-05-05T23:15:47.812Z,13.49
2023-05-05T23:18:14.447Z,13.12
2023-05-05T23:20:41.297Z,13.18
2023-05-05T23:23:10.980Z,13.22
2023-05-05T23:25:40.904Z,13.21
2023-05-05T23:28:10.148Z,13.12
2023-05-05T23:30:36.975Z,13.02
2023-05-05T23:33:04.583Z,13.07
2023-05-05T23:35:31.214Z,13.03
2023-05-05T23:37:57.857Z,12.83
2023-05-05T23:40:24.429Z,13.08
2023-05-05T23:42:51.087Z,12.77
2023-05-05T23:45:19.342Z,12.72
2023-05-05T23:47:46.286Z,12.69
2023-05-05T23:50:12.930Z,12.86
2023-05-05T23:52:42.677Z,12.97
2023-05-05T23:55:10.824Z,12.86
2023-05-05T23:57:37.780Z,12.69
